Airfield :
LOGIN :

Register | Disclaimer

   EN    FR    IT 

 










Legend :    VFR   Marginal VFR   IFR   Intensive IFR   Very Intensive IFR
Visi :
Ceiling :
>= 8 km
>= 3000ft
5 to 8 km
1000 to 3000 ft
1500m to 5 km
500 to 1000 ft
800 to 1500m
200 to 500 ft
< 800m
< 200 ft
Symbols :   Thunderstorms  Fog  Heavy snow  Heavy precipitations  Wind > 20 kt
SIGMETs :     Misc.  Thunderstorms  Icing  Turbulence  Mountain Waves  Volcanic Ashes







- Airport Elevation : 1947 ft
- IATA code : OBF


EDMO - Oberpfaffenhofen

CURRENT METAR :
  • 181620Z 34005KT 300V010 CAVOK 26/12 Q1015

EXPIRED METARs :
  • 181550Z 32006KT 290V350 CAVOK 26/12 Q1015
  • 181520Z 35007KT 310V030 CAVOK 26/13 Q1015
  • 181450Z 35008KT 310V030 CAVOK 26/13 Q1015
  • 181420Z 35006KT 310V020 CAVOK 26/13 Q1015
  • 181350Z 26004KT 210V330 CAVOK 27/12 Q1015

TAF TAF EDMO
Valid from the 18 at 15:00 until the 19 at 00:00 UTC


181400Z 1815/1824 33005KT CAVOK
BECMG 1816/1818 VRB03KT
No reported NOTAMs for that airfield.



MET'MAP, your aeronautical weather chart ! - Copyright ORBIFLY December 2007 - Disclaimer

ORBIFLY MET'MAP TEAM :

Programming & Development : Alexandra Zaïnal
Concept & Development : Baudouin d'Aumeries
Co-Development & Prog : Marc-Olivier Méhu
Technical & hardware support : Manuel Goepfert

Contact : metmap@orbifly.com




SOURCES & CREDITS :

   NOAA